Time;durP1;ratioP1;P1;durP2;ratioP2;P2;SDS_P1;SDS_P2;PMS_P1;PMS_P2;Temp;Humidity;BMP_temperature;BMP_pressure;BME280_temperature;BME280_humidity;BME280_pressure;Samples;Min_cycle;Max_cycle;Signal;HPM_P1;HPM_P2
2022/09/19 00:01:18;;;;;;;;;3.00;1.33;;;;;15.73;49.90;101751.25;4976301;28;45271;-56
2022/09/19 00:03:55;;;;;;;;;4.33;1.67;;;;;15.71;49.79;101756.75;4975884;28;48075;-55
2022/09/19 00:06:21;;;;;;;;;2.00;2.00;;;;;15.68;50.16;101746.38;4976024;28;45457;-56
2022/09/19 00:08:48;;;;;;;;;4.00;3.00;;;;;15.68;50.29;101746.38;4976222;28;45342;-49
2022/09/19 00:11:16;;;;;;;;;5.00;2.00;;;;;15.65;50.53;101747.50;4976331;28;45337;-52
2022/09/19 00:13:45;;;;;;;;;4.33;3.00;;;;;15.64;50.72;101745.81;4975702;28;46220;-51
2022/09/19 00:16:12;;;;;;;;;2.00;2.00;;;;;15.61;50.73;101747.94;4977195;28;45351;-51
2022/09/19 00:18:38;;;;;;;;;4.33;3.00;;;;;15.56;50.54;101737.69;4976115;28;45327;-52
2022/09/19 00:21:03;;;;;;;;;3.00;2.00;;;;;15.61;50.70;101745.25;4976231;28;45415;-55
2022/09/19 00:26:17;;;;;;;;;3.33;3.33;;;;;15.53;50.63;101735.31;4976093;28;45298;-50
2022/09/19 00:28:44;;;;;;;;;1.67;1.00;;;;;15.56;51.13;101747.56;4975906;28;45304;-51
2022/09/19 00:31:17;;;;;;;;;2.00;2.00;;;;;15.48;50.87;101740.28;4975993;28;45256;-49
2022/09/19 00:33:44;;;;;;;;;4.33;2.00;;;;;15.51;51.25;101745.34;4975694;28;46190;-51
2022/09/19 00:36:10;;;;;;;;;4.67;3.00;;;;;15.49;51.04;101755.38;4975391;28;45453;-47
2022/09/19 00:38:36;;;;;;;;;2.00;2.00;;;;;15.48;51.22;101751.00;4975379;28;45241;-47
2022/09/19 00:41:01;;;;;;;;;4.00;4.00;;;;;15.47;51.60;101749.34;4975719;28;45211;-49
2022/09/19 00:43:56;;;;;;;;;8.00;4.67;;;;;15.45;50.83;101756.69;4975376;28;46122;-50
2022/09/19 00:46:23;;;;;;;;;4.33;3.00;;;;;15.46;51.41;101774.44;4975446;28;45315;-52
2022/09/19 00:48:59;;;;;;;;;2.00;2.00;;;;;15.42;51.13;101759.66;4975604;28;45320;-49
2022/09/19 00:51:43;;;;;;;;;2.00;2.00;;;;;15.44;51.25;101763.88;4975730;28;45370;-47
2022/09/19 00:54:13;;;;;;;;;2.67;2.67;;;;;15.43;51.71;101761.38;4975337;28;46193;-47
2022/09/19 00:56:45;;;;;;;;;3.00;3.00;;;;;15.39;51.50;101760.81;4975344;28;45240;-50
2022/09/19 00:59:12;;;;;;;;;4.00;3.33;;;;;15.34;51.85;101755.09;4975631;28;45391;-48
2022/09/19 01:01:38;;;;;;;;;2.33;2.33;;;;;15.30;51.73;101751.03;4975656;28;45379;-46
2022/09/19 01:04:18;;;;;;;;;4.00;2.00;;;;;15.35;51.70;101772.00;4975130;28;46134;-50
2022/09/19 01:07:14;;;;;;;;;3.33;3.33;;;;;15.33;51.52;101765.94;4975200;28;45430;-52
2022/09/19 01:09:53;;;;;;;;;3.00;2.67;;;;;15.32;52.43;101769.63;4975231;28;45415;-51
2022/09/19 01:12:47;;;;;;;;;3.00;2.00;;;;;15.29;51.95;101764.56;4974738;28;45377;-50
2022/09/19 01:15:44;;;;;;;;;3.00;3.00;;;;;15.29;52.23;101767.25;4974928;28;46331;-55
2022/09/19 01:18:09;;;;;;;;;2.00;2.00;;;;;15.26;52.50;101768.41;4975037;28;45299;-53
2022/09/19 01:20:56;;;;;;;;;4.00;3.00;;;;;15.24;52.50;101765.03;4976742;28;45450;-56
2022/09/19 01:23:32;;;;;;;;;4.00;2.00;;;;;15.23;52.61;101768.72;4975313;28;45421;-54
2022/09/19 01:26:22;;;;;;;;;3.00;3.00;;;;;15.21;52.20;101763.50;4974836;28;46918;-57
2022/09/19 01:28:59;;;;;;;;;5.33;3.00;;;;;15.18;52.30;101766.47;4974949;28;45470;-57
2022/09/19 01:31:28;;;;;;;;;2.00;2.00;;;;;15.16;52.98;101762.25;4977036;28;45422;-55
2022/09/19 01:34:15;;;;;;;;;4.00;2.00;;;;;15.15;52.66;101764.09;4973882;28;45599;-53
2022/09/19 01:36:53;;;;;;;;;2.00;2.00;;;;;15.11;52.69;101765.41;4974691;28;45427;-55
2022/09/19 01:39:23;;;;;;;;;5.00;4.00;;;;;15.11;52.68;101762.72;4974784;28;45319;-54
2022/09/19 01:41:51;;;;;;;;;1.67;1.67;;;;;15.05;53.38;101749.94;4974826;28;45501;-52
2022/09/19 01:44:20;;;;;;;;;2.67;2.00;;;;;15.09;53.10;101761.19;4974821;28;45389;-50
2022/09/19 01:47:22;;;;;;;;;6.33;2.33;;;;;15.07;53.04;101763.16;4974553;28;46160;-49
2022/09/19 01:50:14;;;;;;;;;2.67;2.67;;;;;15.05;53.01;101766.00;4974649;28;45333;-51
2022/09/19 01:53:01;;;;;;;;;2.67;2.67;;;;;15.04;52.76;101768.81;4974494;28;45327;-51
2022/09/19 01:55:40;;;;;;;;;2.00;1.00;;;;;15.02;53.06;101771.66;4974559;28;45326;-50
2022/09/19 01:58:20;;;;;;;;;3.33;3.33;;;;;15.00;53.35;101771.00;4974332;28;45378;-54
2022/09/19 02:00:56;;;;;;;;;1.00;1.00;;;;;14.89;53.34;101755.13;4974421;28;45443;-53
2022/09/19 02:03:43;;;;;;;;;4.00;2.33;;;;;14.95;53.40;101771.41;4974598;28;45469;-50
2022/09/19 02:06:29;;;;;;;;;4.00;2.00;;;;;14.94;53.14;101771.56;4974542;28;45326;-56
2022/09/19 02:09:06;;;;;;;;;5.00;2.33;;;;;14.93;53.41;101767.22;4974410;28;45543;-54
2022/09/19 02:11:31;;;;;;;;;1.33;1.33;;;;;14.92;53.84;101774.41;4974374;28;45481;-56
2022/09/19 02:14:16;;;;;;;;;3.00;2.00;;;;;14.90;53.52;101773.69;4974353;28;45233;-57
2022/09/19 02:16:51;;;;;;;;;4.00;4.00;;;;;14.89;53.77;101779.22;4974464;28;45493;-51
2022/09/19 02:19:24;;;;;;;;;2.67;2.67;;;;;14.89;53.90;101785.41;4974149;28;46566;-47
2022/09/19 02:21:56;;;;;;;;;2.33;2.33;;;;;14.86;53.77;101774.16;4974958;28;45275;-51
2022/09/19 02:24:28;;;;;;;;;3.67;3.00;;;;;14.84;54.04;101779.69;4977154;28;45357;-53
2022/09/19 02:26:59;;;;;;;;;5.00;4.00;;;;;14.84;54.23;101778.84;4977335;28;45291;-56
2022/09/19 02:29:30;;;;;;;;;2.33;2.33;;;;;14.86;54.56;101787.56;4976999;28;46342;-53
2022/09/19 02:31:57;;;;;;;;;5.00;2.33;;;;;14.82;54.48;101786.16;4976972;28;45279;-55
2022/09/19 02:34:23;;;;;;;;;6.67;3.00;;;;;14.83;54.91;101788.72;4977185;28;45439;-57
2022/09/19 02:36:54;;;;;;;;;5.00;3.00;;;;;14.82;54.25;101786.16;4977235;28;45440;-56
2022/09/19 02:39:42;;;;;;;;;3.67;2.00;;;;;14.82;54.47;101778.13;4976869;28;46145;-57
2022/09/19 02:42:22;;;;;;;;;2.00;2.00;;;;;14.79;54.51;101778.41;5017241;28;45460;-53
2022/09/19 02:45:00;;;;;;;;;2.50;1.00;;;;;14.79;54.70;101783.78;5017557;28;45591;-56
2022/09/19 02:47:39;;;;;;;;;1.33;1.33;;;;;14.78;54.69;101790.97;5017558;28;45476;-55
2022/09/19 02:50:11;;;;;;;;;4.00;2.33;;;;;14.80;54.93;101793.53;5017213;28;46180;-53
2022/09/19 02:52:38;;;;;;;;;3.67;2.33;;;;;14.79;54.69;101789.13;5017356;28;45472;-54
2022/09/19 02:55:12;;;;;;;;;2.00;2.00;;;;;14.77;55.07;101788.44;5017278;28;45483;-55
2022/09/19 02:57:40;;;;;;;;;5.00;3.33;;;;;14.68;55.17;101777.63;5000735;28;45334;-54
2022/09/19 03:00:07;;;;;;;;;2.00;2.00;;;;;14.74;55.09;101794.94;5017108;28;45334;-55
2022/09/19 03:02:37;;;;;;;;;6.33;2.00;;;;;14.74;55.04;101792.25;5016990;28;45511;-56
2022/09/19 03:05:09;;;;;;;;;2.00;2.00;;;;;14.71;55.19;101790.75;5017397;28;45490;-52
2022/09/19 03:07:45;;;;;;;;;2.33;2.33;;;;;14.71;55.08;101790.75;5017671;28;45355;-55
2022/09/19 03:10:19;;;;;;;;;1.67;1.67;;;;;14.70;54.92;101791.69;5016671;28;46396;-47
2022/09/19 03:12:50;;;;;;;;;5.00;2.33;;;;;14.71;55.37;101792.56;5016904;28;45406;-54
2022/09/19 03:15:21;;;;;;;;;7.67;2.00;;;;;14.67;55.56;101792.03;5017252;28;45325;-55
2022/09/19 03:17:51;;;;;;;;;3.33;2.00;;;;;14.65;55.31;101785.94;5017490;28;45470;-50
2022/09/19 03:20:18;;;;;;;;;3.00;1.00;;;;;14.62;55.40;101786.28;4979444;28;46281;-51
2022/09/19 03:22:45;;;;;;;;;2.00;1.67;;;;;14.63;55.63;101792.47;4976328;28;45180;-54
2022/09/19 03:25:14;;;;;;;;;2.00;2.00;;;;;14.60;55.63;101792.75;4976411;28;45627;-55
2022/09/19 03:27:39;;;;;;;;;2.00;2.00;;;;;14.59;56.09;101791.06;4976900;28;45332;-50
2022/09/19 03:30:08;;;;;;;;;1.67;1.67;;;;;14.48;55.95;101779.53;4976550;28;45340;-48
2022/09/19 03:32:35;;;;;;;;;3.00;1.33;;;;;14.58;56.19;101792.03;4991350;28;45868;-48
2022/09/19 03:35:02;;;;;;;;;2.67;1.33;;;;;14.56;55.95;101788.69;4975846;28;45291;-51
2022/09/19 03:37:28;;;;;;;;;2.00;2.00;;;;;14.55;56.12;101785.16;4976506;28;45481;-50
2022/09/19 03:39:54;;;;;;;;;2.67;1.00;;;;;14.55;56.17;101795.03;4975914;28;45508;-50
2022/09/19 03:42:20;;;;;;;;;1.33;1.33;;;;;14.53;56.23;101792.47;4975970;28;45298;-49
2022/09/19 03:44:46;;;;;;;;;3.33;2.00;;;;;14.45;56.12;101789.66;4976604;28;45474;-48
2022/09/19 03:47:11;;;;;;;;;2.00;2.00;;;;;14.49;56.41;101799.13;4976483;28;45340;-48
2022/09/19 03:49:36;;;;;;;;;2.33;2.33;;;;;14.47;56.59;101803.75;4976035;28;46131;-49
2022/09/19 03:52:02;;;;;;;;;2.33;2.33;;;;;14.46;56.78;101805.59;4976013;28;45370;-52
2022/09/19 03:54:27;;;;;;;;;2.00;1.00;;;;;14.39;56.59;101793.78;4976056;28;45400;-50
2022/09/19 03:56:53;;;;;;;;;3.00;3.00;;;;;14.42;56.84;101806.88;4976208;28;45452;-50
2022/09/19 03:59:19;;;;;;;;;4.33;1.67;;;;;14.40;56.85;101799.97;4975909;28;46069;-48
2022/09/19 04:01:44;;;;;;;;;5.33;3.00;;;;;14.40;56.99;101803.50;4975993;28;45378;-53
2022/09/19 04:04:10;;;;;;;;;3.33;1.33;;;;;14.38;56.37;101804.66;4976056;28;45387;-51
2022/09/19 04:06:36;;;;;;;;;2.00;2.00;;;;;14.38;56.85;101815.34;4976283;28;45308;-47
2022/09/19 04:09:02;;;;;;;;;2.00;2.00;;;;;14.26;56.88;101790.59;4975739;28;46166;-49
2022/09/19 04:11:29;;;;;;;;;2.00;2.00;;;;;14.37;56.79;101811.84;4975654;28;45434;-51
2022/09/19 04:13:55;;;;;;;;;2.67;2.33;;;;;14.35;56.61;101808.44;4976165;28;45398;-50
2022/09/19 04:16:21;;;;;;;;;3.33;3.00;;;;;14.27;56.84;101800.28;4975971;28;45584;-50
2022/09/19 04:18:49;;;;;;;;;2.00;2.00;;;;;14.31;56.85;101811.56;4975724;28;46280;-48
2022/09/19 04:21:16;;;;;;;;;5.33;2.00;;;;;14.27;57.07;101808.31;4975743;28;45489;-51
2022/09/19 04:23:42;;;;;;;;;3.00;3.00;;;;;14.28;57.01;101804.66;4975883;28;45444;-50
2022/09/19 04:26:10;;;;;;;;;3.00;3.00;;;;;14.30;56.99;101809.88;4975928;28;45489;-51
2022/09/19 04:28:38;;;;;;;;;3.00;3.00;;;;;14.29;57.04;101816.22;4976834;28;45948;-51
2022/09/19 04:31:04;;;;;;;;;2.67;1.33;;;;;14.28;57.26;101819.88;4975702;28;45442;-54
2022/09/19 04:33:30;;;;;;;;;4.00;2.33;;;;;14.28;57.35;101817.19;4975646;28;45309;-49
2022/09/19 04:35:59;;;;;;;;;3.00;3.00;;;;;14.26;57.28;101820.03;4975928;28;45506;-56
2022/09/19 04:38:25;;;;;;;;;2.33;2.33;;;;;14.26;57.29;101811.16;4975326;28;46385;-54
2022/09/19 04:40:56;;;;;;;;;3.00;3.00;;;;;14.24;57.56;101819.31;4975242;28;45287;-56
2022/09/19 04:43:23;;;;;;;;;4.33;3.33;;;;;14.15;57.43;101802.28;4975557;28;45437;-56
2022/09/19 04:45:50;;;;;;;;;4.67;3.00;;;;;14.14;57.51;101807.78;4974285;28;45486;-53
2022/09/19 04:48:17;;;;;;;;;3.33;3.33;;;;;14.23;57.58;101817.63;4975255;28;46199;-52
2022/09/19 04:50:44;;;;;;;;;4.00;3.00;;;;;14.23;57.72;101825.66;4975346;28;45415;-55
2022/09/19 04:53:13;;;;;;;;;4.67;3.00;;;;;14.21;57.71;101825.81;4975517;28;45616;-56
2022/09/19 04:55:39;;;;;;;;;3.00;3.00;;;;;14.14;57.72;101822.00;4975525;28;45325;-55
2022/09/19 04:58:04;;;;;;;;;4.33;3.00;;;;;14.20;57.63;101831.31;4975158;28;46068;-50
2022/09/19 05:00:38;;;;;;;;;3.67;3.67;;;;;14.20;57.94;101831.31;4975457;28;45307;-52
2022/09/19 05:03:07;;;;;;;;;7.00;4.00;;;;;14.18;58.07;101827.94;4975315;28;45562;-48
2022/09/19 05:05:34;;;;;;;;;4.00;2.00;;;;;14.16;57.94;101824.56;4975406;28;45310;-52
2022/09/19 05:07:59;;;;;;;;;3.00;2.00;;;;;14.11;58.37;101822.28;4975194;28;45409;-53
2022/09/19 05:10:25;;;;;;;;;3.00;3.00;;;;;14.01;58.36;101808.09;4975169;28;45488;-53
2022/09/19 05:12:51;;;;;;;;;6.33;4.00;;;;;14.13;58.30;101833.72;4975163;28;45273;-50
2022/09/19 05:15:17;;;;;;;;;4.00;4.00;;;;;14.10;58.46;101828.63;4974096;28;45900;-56
2022/09/19 05:17:42;;;;;;;;;5.00;3.00;;;;;14.11;58.44;101829.47;4974832;28;45326;-49
2022/09/19 05:20:08;;;;;;;;;4.33;2.67;;;;;14.10;58.86;101838.50;4975223;28;45342;-49
2022/09/19 05:22:33;;;;;;;;;7.67;3.00;;;;;14.10;58.47;101839.34;4975092;28;45401;-49
2022/09/19 05:25:03;;;;;;;;;5.67;3.67;;;;;14.07;58.94;101839.63;4975565;28;45403;-51
2022/09/19 05:27:31;;;;;;;;;5.00;5.00;;;;;14.06;58.67;101834.41;4974832;28;46324;-55
2022/09/19 05:29:58;;;;;;;;;3.33;3.00;;;;;14.04;58.83;101836.41;4974667;28;45374;-50
2022/09/19 05:32:24;;;;;;;;;3.00;3.00;;;;;14.04;58.87;101836.41;4976270;28;45314;-52
2022/09/19 05:34:49;;;;;;;;;4.00;4.00;;;;;14.06;58.54;101845.13;4975031;28;45492;-49
2022/09/19 05:37:14;;;;;;;;;4.00;4.00;;;;;14.04;58.66;101850.63;4974781;28;45461;-57
2022/09/19 05:39:40;;;;;;;;;2.33;2.33;;;;;14.05;58.51;101849.63;4974413;28;45520;-56
2022/09/19 05:42:05;;;;;;;;;5.00;3.00;;;;;14.01;58.82;101842.88;4973343;28;45386;-51
2022/09/19 05:44:31;;;;;;;;;3.00;3.00;;;;;14.06;58.81;101847.78;4975014;28;45478;-50
2022/09/19 05:46:57;;;;;;;;;4.33;3.00;;;;;14.08;58.84;101854.72;4974723;28;46014;-59
2022/09/19 05:49:22;;;;;;;;;6.33;4.00;;;;;14.09;59.10;101856.38;4976526;28;45279;-60
2022/09/19 05:51:47;;;;;;;;;3.67;3.00;;;;;14.07;58.68;101855.66;4974690;28;45323;-56
2022/09/19 05:54:13;;;;;;;;;3.67;3.00;;;;;14.09;58.90;101853.72;4975202;28;45234;-57
2022/09/19 05:56:38;;;;;;;;;4.00;3.33;;;;;14.10;59.04;101851.88;4975048;28;45346;-55
2022/09/19 05:59:04;;;;;;;;;3.00;3.00;;;;;14.12;58.76;101855.28;4977843;28;45421;-57
2022/09/19 06:01:29;;;;;;;;;3.67;3.67;;;;;14.13;58.80;101859.63;4977904;28;45469;-59
2022/09/19 06:03:54;;;;;;;;;5.33;5.33;;;;;14.15;58.51;101860.31;4977606;28;45283;-61
2022/09/19 06:06:20;;;;;;;;;4.00;4.00;;;;;14.16;58.57;101859.34;4977325;28;45509;-60
2022/09/19 06:08:47;;;;;;;;;5.33;4.00;;;;;14.17;58.90;101864.56;4977436;28;45342;-59
2022/09/19 06:11:13;;;;;;;;;4.00;2.00;;;;;14.19;58.67;101867.91;4977348;28;45319;-54
2022/09/19 06:16:22;;;;;;;;;5.00;5.00;;;;;14.22;58.72;101874.81;4977206;28;45311;-57
2022/09/19 06:18:49;;;;;;;;;3.00;3.00;;;;;14.24;58.72;101886.22;4977273;28;45456;-55
2022/09/19 06:21:14;;;;;;;;;4.67;4.00;;;;;14.25;58.79;101884.41;4977311;28;45369;-57
2022/09/19 06:23:41;;;;;;;;;5.00;5.00;;;;;14.25;58.97;101879.06;4977241;28;45512;-49
2022/09/19 06:26:07;;;;;;;;;2.67;2.33;;;;;14.30;58.98;101888.34;4976949;28;46185;-54
2022/09/19 06:28:33;;;;;;;;;9.67;5.00;;;;;14.33;59.02;101893.41;4977003;28;45266;-57
2022/09/19 06:31:03;;;;;;;;;5.00;4.00;;;;;14.35;58.72;101887.91;4977270;28;45351;-54
2022/09/19 06:33:30;;;;;;;;;4.00;4.00;;;;;14.39;58.58;101900.00;4977457;28;45441;-55
2022/09/19 06:35:58;;;;;;;;;3.33;3.33;;;;;14.40;58.75;101891.00;4978289;28;46097;-51
2022/09/19 06:38:24;;;;;;;;;9.33;4.00;;;;;14.43;58.63;101896.91;4976893;28;45402;-57
2022/09/19 06:40:49;;;;;;;;;4.67;4.67;;;;;14.46;58.63;101893.94;4976924;28;45309;-53
2022/09/19 06:43:15;;;;;;;;;8.33;7.67;;;;;14.48;58.50;101901.81;4977241;28;45388;-53
2022/09/19 06:45:40;;;;;;;;;9.00;5.33;;;;;14.53;58.31;101910.28;4976706;28;46207;-55
2022/09/19 06:48:08;;;;;;;;;4.33;3.67;;;;;14.56;58.23;101910.03;4976852;28;45355;-51
2022/09/19 06:50:35;;;;;;;;;7.00;4.00;;;;;14.58;58.21;101908.06;4977021;28;45233;-53
2022/09/19 06:53:00;;;;;;;;;3.33;3.33;;;;;14.56;58.36;101910.03;4992269;28;45371;-55
2022/09/19 06:55:27;;;;;;;;;7.33;4.00;;;;;14.63;58.33;101919.16;4976763;28;45450;-55
2022/09/19 06:58:02;;;;;;;;;7.00;4.00;;;;;14.67;57.70;101915.22;4976479;28;45425;-61
2022/09/19 07:00:30;;;;;;;;;4.00;4.00;;;;;14.72;58.05;101918.28;4976629;28;45347;-56
2022/09/19 07:03:03;;;;;;;;;6.33;4.00;;;;;14.76;57.85;101920.69;4976877;28;45470;-51
2022/09/19 07:05:34;;;;;;;;;8.00;5.33;;;;;14.80;57.97;101927.44;4976530;28;47292;-57
2022/09/19 07:08:00;;;;;;;;;6.33;5.00;;;;;14.84;58.02;101932.38;4975948;28;45447;-57
2022/09/19 07:10:26;;;;;;;;;7.00;5.33;;;;;14.88;58.00;101935.59;4976173;28;45296;-56
2022/09/19 07:12:56;;;;;;;;;9.00;4.67;;;;;14.94;57.82;101943.03;4976751;28;45358;-55
2022/09/19 07:15:23;;;;;;;;;4.00;4.00;;;;;15.01;57.07;101941.47;4976318;28;46409;-56
2022/09/19 07:17:48;;;;;;;;;2.00;2.00;;;;;15.08;56.91;101942.56;4976696;28;45384;-56
2022/09/19 07:20:14;;;;;;;;;9.33;4.67;;;;;15.16;56.90;101937.31;4976614;28;45249;-57
2022/09/19 07:22:40;;;;;;;;;3.33;3.33;;;;;15.24;56.96;101941.94;4976749;28;45351;-56
2022/09/19 07:25:07;;;;;;;;;5.00;3.33;;;;;15.39;56.49;101939.63;4976323;28;46310;-56
2022/09/19 07:27:33;;;;;;;;;4.00;2.67;;;;;15.50;56.16;101942.09;4991281;28;45946;-56
2022/09/19 07:29:58;;;;;;;;;4.33;3.33;;;;;15.62;56.13;101946.25;4976528;28;45287;-56
2022/09/19 07:32:24;;;;;;;;;3.00;3.00;;;;;15.74;55.55;101940.72;4976563;28;45475;-57
2022/09/19 07:34:49;;;;;;;;;5.00;3.00;;;;;15.84;55.54;101949.53;4975983;28;46879;-56
2022/09/19 07:37:15;;;;;;;;;6.67;4.00;;;;;15.87;55.25;101942.03;4976263;28;45403;-56
2022/09/19 07:39:40;;;;;;;;;3.67;3.67;;;;;15.96;55.19;101951.84;4976050;28;45336;-52
2022/09/19 07:42:06;;;;;;;;;4.00;4.00;;;;;16.01;55.01;101954.06;4974806;28;45392;-55
2022/09/19 07:44:31;;;;;;;;;7.67;4.00;;;;;16.04;55.15;101958.31;4975955;28;45332;-54
2022/09/19 07:49:40;;;;;;;;;4.67;4.67;;;;;16.09;54.41;101958.69;4976457;28;45639;-54
2022/09/19 07:52:06;;;;;;;;;6.33;4.00;;;;;16.09;54.72;101959.53;4976451;28;45315;-56
2022/09/19 07:54:31;;;;;;;;;5.00;5.00;;;;;16.07;54.69;101956.16;4976090;28;46038;-57
2022/09/19 07:56:57;;;;;;;;;7.33;5.33;;;;;16.17;54.51;101964.13;4976282;28;45381;-55
2022/09/19 07:59:22;;;;;;;;;7.00;5.67;;;;;16.11;54.55;101946.81;4976202;28;45536;-57
2022/09/19 08:01:48;;;;;;;;;4.33;4.33;;;;;16.27;54.49;101966.75;4976452;28;45396;-57
2022/09/19 08:04:13;;;;;;;;;8.33;5.00;;;;;16.35;54.27;101966.81;4976089;28;46099;-57
2022/09/19 08:06:39;;;;;;;;;7.00;4.67;;;;;16.43;54.08;101969.56;4975831;28;45341;-51
2022/09/19 08:09:05;;;;;;;;;5.33;4.33;;;;;16.62;53.71;101968.56;4974892;28;45445;-54
2022/09/19 08:11:35;;;;;;;;;4.67;4.00;;;;;16.76;53.09;101965.31;4976139;28;45187;-54
2022/09/19 08:14:01;;;;;;;;;4.00;3.00;;;;;16.98;52.46;101972.03;4977009;28;46385;-57
2022/09/19 08:16:26;;;;;;;;;4.00;3.00;;;;;17.24;51.90;101981.91;4975796;28;45513;-55
2022/09/19 08:18:51;;;;;;;;;2.00;2.00;;;;;17.45;51.23;101972.44;4975992;28;45295;-54
2022/09/19 08:21:17;;;;;;;;;2.33;2.33;;;;;17.71;50.51;101972.34;4975843;28;45352;-53
2022/09/19 08:23:42;;;;;;;;;2.00;2.00;;;;;18.09;49.53;101978.19;4975559;28;46082;-57
2022/09/19 08:26:08;;;;;;;;;5.00;4.00;;;;;18.49;48.52;101973.84;4975497;28;45385;-56
2022/09/19 08:28:34;;;;;;;;;4.00;2.75;;;;;20.11;45.15;101973.50;4975881;28;45477;-54
2022/09/19 08:31:00;;;;;;;;;5.25;3.00;;;;;21.84;41.54;101979.69;4975781;28;45263;-52
2022/09/19 08:33:26;;;;;;;;;2.75;2.00;;;;;22.87;39.07;101981.06;4975514;28;46375;-56
2022/09/19 08:35:52;;;;;;;;;2.50;2.50;;;;;24.03;36.25;101971.22;4975776;28;45366;-51
2022/09/19 08:38:17;;;;;;;;;3.50;1.00;;;;;24.21;35.89;101981.50;4975762;28;45221;-57
2022/09/19 08:41:08;;;;;;;;;4.75;1.50;;;;;23.77;36.14;101976.59;4975591;28;45415;-57
2022/09/19 08:43:42;;;;;;;;;1.40;1.20;;;;;25.39;34.90;101978.94;4975118;28;46944;-57
2022/09/19 08:46:18;;;;;;;;;2.80;1.60;;;;;26.91;33.24;101976.28;4975519;28;45318;-57
2022/09/19 08:49:02;;;;;;;;;3.40;1.00;;;;;28.39;31.63;101975.88;4975509;28;45330;-57
2022/09/19 08:51:29;;;;;;;;;1.80;0.40;;;;;27.23;31.64;101974.28;4975758;28;45387;-58
2022/09/19 08:54:10;;;;;;;;;3.40;1.00;;;;;25.76;32.28;101979.19;4975304;28;46201;-57
2022/09/19 08:56:37;;;;;;;;;1.00;1.00;;;;;25.47;31.93;101978.69;4975512;28;45340;-58
2022/09/19 08:59:10;;;;;;;;;1.00;1.00;;;;;25.52;32.33;101981.59;4975508;28;45454;-54
2022/09/19 09:01:37;;;;;;;;;0.60;0.60;;;;;25.49;31.59;101978.47;4975960;28;45448;-57
2022/09/19 09:04:10;;;;;;;;;2.00;2.00;;;;;27.23;30.57;101993.41;4975132;28;45426;-56
2022/09/19 09:07:00;;;;;;;;;3.00;0.40;;;;;29.43;28.68;101987.03;4975176;28;45354;-56
2022/09/19 09:10:02;;;;;;;;;0.40;0.40;;;;;28.62;28.11;101979.72;4975413;28;45232;-57
2022/09/19 09:12:44;;;;;;;;;1.00;0.40;;;;;29.16;26.89;101977.69;4975754;28;45396;-57
2022/09/19 09:15:30;;;;;;;;;2.60;1.00;;;;;28.57;27.79;101984.00;4974892;28;46354;-55
2022/09/19 09:18:07;;;;;;;;;1.20;0.20;;;;;28.77;27.78;101972.69;4975241;28;45514;-56
2022/09/19 09:20:39;;;;;;;;;1.60;0.00;;;;;27.54;28.46;101982.31;4975275;28;45440;-57
2022/09/19 09:23:11;;;;;;;;;2.00;1.00;;;;;26.25;30.33;101986.69;4975265;28;45860;-58
2022/09/19 09:25:42;;;;;;;;;1.00;1.00;;;;;25.12;31.98;101983.63;4974896;28;46329;-55
2022/09/19 09:28:18;;;;;;;;;1.20;0.20;;;;;24.31;32.52;101992.84;4974893;28;45363;-55
2022/09/19 09:30:47;;;;;;;;;0.80;0.80;;;;;23.79;33.38;101991.66;4975092;28;45357;-54
2022/09/19 09:33:18;;;;;;;;;1.40;1.00;;;;;24.25;33.31;101981.94;4974443;28;45361;-57
2022/09/19 09:35:48;;;;;;;;;1.60;0.60;;;;;24.58;32.31;101990.16;4974950;28;46088;-57
2022/09/19 09:38:34;;;;;;;;;1.40;0.60;;;;;24.12;32.71;101989.03;4975080;28;45296;-56
2022/09/19 09:41:56;;;;;;;;;1.00;1.00;;;;;23.56;33.29;101991.13;4974916;28;45357;-54
2022/09/19 09:44:43;;;;;;;;;3.00;0.00;;;;;22.94;33.86;101998.28;4934110;28;45431;-50
2022/09/19 09:47:43;;;;;;;;;0.00;0.00;;;;;22.38;34.95;101995.50;4933065;28;46050;-50
2022/09/19 09:50:47;;;;;;;;;0.00;0.00;;;;;21.90;35.38;102003.28;4917381;28;45605;-55
2022/09/19 09:53:12;;;;;;;;;0.00;0.00;;;;;21.53;35.84;101999.75;4933744;28;45403;-55
2022/09/19 09:58:45;;;;;;;;;0.60;0.00;;;;;21.03;37.17;102001.28;4933564;28;45456;-51
2022/09/19 10:04:51;;;;;;;;;0.80;0.80;;;;;21.11;36.87;101997.63;4933742;28;45427;-50
2022/09/19 10:07:35;;;;;;;;;0.25;0.00;;;;;21.33;36.24;101998.63;4876732;28;45646;-54
2022/09/19 10:10:13;;;;;;;;;3.20;0.00;;;;;26.80;29.72;101991.50;4876325;29;46368;-55
2022/09/19 10:13:01;;;;;;;;;0.60;0.00;;;;;31.10;25.23;101978.44;4876287;29;45520;-51
2022/09/19 10:15:31;;;;;;;;;0.40;0.40;;;;;33.99;21.75;101968.03;4876426;29;45390;-54
2022/09/19 10:18:06;;;;;;;;;0.80;0.80;;;;;34.00;20.91;101921.94;4876514;29;45511;-57
2022/09/19 10:20:38;;;;;;;;;1.40;0.00;;;;;33.25;20.94;101965.63;4903983;28;46188;-56
2022/09/19 10:23:11;;;;;;;;;1.40;1.00;;;;;33.20;21.42;101965.56;4913447;28;45328;-58
2022/09/19 10:25:37;;;;;;;;;1.00;0.00;;;;;31.49;22.03;101965.50;4914223;28;45487;-57
2022/09/19 10:28:26;;;;;;;;;0.50;0.00;;;;;29.59;24.05;101966.28;4914499;28;45334;-56
2022/09/19 10:30:58;;;;;;;;;1.20;0.00;;;;;32.22;22.81;101966.00;4913931;28;46963;-56
2022/09/19 10:33:45;;;;;;;;;1.40;0.00;;;;;34.08;20.69;101945.41;4913959;28;45359;-57
2022/09/19 10:36:31;;;;;;;;;0.60;0.00;;;;;32.18;21.30;101959.34;4914205;28;45421;-57
2022/09/19 10:38:59;;;;;;;;;1.60;0.00;;;;;30.20;22.42;101961.13;4914117;28;45522;-57
2022/09/19 10:41:27;;;;;;;;;5.40;4.00;;;;;28.71;24.51;101951.75;4913655;28;46135;-57
2022/09/19 10:44:01;;;;;;;;;2.00;0.20;;;;;27.27;26.43;101964.59;4935728;28;45446;-57
2022/09/19 10:46:36;;;;;;;;;0.00;0.00;;;;;26.24;27.14;101967.81;4976886;28;45389;-56
2022/09/19 10:49:13;;;;;;;;;0.80;0.00;;;;;30.87;23.07;101961.09;4977249;28;45426;-58
2022/09/19 10:51:44;;;;;;;;;0.00;0.00;;;;;34.74;19.64;101957.25;4976733;28;47071;-53
2022/09/19 10:54:19;;;;;;;;;0.00;0.00;;;;;37.44;17.65;101959.09;4978228;28;45501;-57
2022/09/19 10:56:45;;;;;;;;;0.20;0.00;;;;;39.46;15.34;101954.94;4976848;28;45394;-57
2022/09/19 10:59:11;;;;;;;;;0.20;0.00;;;;;41.27;14.39;101948.81;4978376;28;45524;-58
2022/09/19 11:01:38;;;;;;;;;1.00;0.25;;;;;42.80;13.38;101949.25;4976879;28;45270;-56
2022/09/19 11:04:25;;;;;;;;;0.00;0.00;;;;;44.34;12.88;101943.13;4976791;28;45224;-52
2022/09/19 11:07:02;;;;;;;;;1.00;0.00;;;;;45.36;12.53;101941.22;4976781;28;45314;-58
2022/09/19 11:09:33;;;;;;;;;0.80;0.00;;;;;44.51;11.95;101942.91;4977135;28;45353;-57
2022/09/19 11:12:14;;;;;;;;;2.00;0.00;;;;;45.47;12.23;101937.59;4976695;28;46026;-55
2022/09/19 11:14:41;;;;;;;;;0.00;0.00;;;;;46.28;10.23;101943.06;4978110;28;45409;-55
2022/09/19 11:17:29;;;;;;;;;2.40;0.80;;;;;46.35;10.94;101939.59;4976682;28;45283;-58
2022/09/19 11:20:03;;;;;;;;;2.40;1.00;;;;;46.38;13.06;101938.88;4976829;28;45406;-54
2022/09/19 11:22:50;;;;;;;;;0.00;0.00;;;;;46.07;14.18;101928.41;4976595;28;46115;-57
2022/09/19 11:25:49;;;;;;;;;0.00;0.00;;;;;45.97;10.09;101936.19;4975270;28;45454;-56
2022/09/19 11:29:04;;;;;;;;;0.80;0.00;;;;;46.31;12.92;101945.13;4976461;28;45279;-53
2022/09/19 11:31:50;;;;;;;;;0.40;0.40;;;;;45.97;11.76;101936.19;5017203;28;45417;-55
2022/09/19 11:34:21;;;;;;;;;0.60;0.60;;;;;44.61;10.96;101941.63;5016850;28;46364;-53
2022/09/19 11:37:13;;;;;;;;;0.80;0.40;;;;;45.08;11.19;101949.59;5016777;28;45397;-50
2022/09/19 11:39:38;;;;;;;;;0.00;0.00;;;;;45.38;10.12;101942.47;4999972;28;45451;-56
2022/09/19 11:42:17;;;;;;;;;0.00;0.00;;;;;42.23;11.67;101938.47;5017191;28;45309;-53
2022/09/19 11:45:04;;;;;;;;;1.00;1.00;;;;;38.53;14.53;101952.38;5016342;28;46320;-52
2022/09/19 11:48:10;;;;;;;;;0.80;0.80;;;;;36.35;15.79;101952.22;5016579;28;45473;-57
2022/09/19 11:51:08;;;;;;;;;0.00;0.00;;;;;34.41;17.05;101950.38;5016641;28;45346;-51
2022/09/19 11:53:45;;;;;;;;;1.00;1.00;;;;;36.99;15.91;101941.06;4938251;28;45268;-53
2022/09/19 11:56:35;;;;;;;;;1.00;0.20;;;;;38.80;15.25;101931.28;4937323;28;47258;-56
2022/09/19 11:59:28;;;;;;;;;0.00;0.00;;;;;39.52;14.94;101930.56;4937920;28;45467;-51
2022/09/19 12:02:09;;;;;;;;;0.00;0.00;;;;;39.80;13.56;101920.19;4962341;28;45428;-57